Time;durP1;ratioP1;P1;durP2;ratioP2;P2;SDS_P1;SDS_P2;PMS_P1;PMS_P2;Temp;Humidity;BMP_temperature;BMP_pressure;BME280_temperature;BME280_humidity;BME280_pressure;Samples;Min_cycle;Max_cycle;Signal;HPM_P1;HPM_P2
2022/05/25 00:00:23;;;;;;;2.38;1.10;;;;;;;18.42;77.88;98379.00;5114548;28;20074;-61
2022/05/25 00:03:08;;;;;;;1.65;1.15;;;;;;;18.24;78.04;98376.50;5114681;28;20057;-61
2022/05/25 00:05:52;;;;;;;1.42;1.10;;;;;;;18.37;77.76;98361.91;5114204;28;20047;-61
2022/05/25 00:08:40;;;;;;;1.73;1.08;;;;;;;18.15;79.04;98367.72;5114575;28;20050;-61
2022/05/25 00:11:24;;;;;;;1.92;1.10;;;;;;;18.01;79.91;98373.63;5112901;28;20434;-60
2022/05/25 00:14:10;;;;;;;2.17;1.20;;;;;;;18.16;79.12;98369.38;5113529;28;20039;-60
2022/05/25 00:16:54;;;;;;;3.30;1.98;;;;;;;18.20;81.29;98375.16;5113028;28;20100;-60
2022/05/25 00:22:50;;;;;;;3.88;2.17;;;;;;;17.16;89.81;98378.78;5112621;28;20066;-61
2022/05/25 00:25:37;;;;;;;1.58;1.17;;;;;;;16.89;90.56;98372.66;5112230;28;20044;-61
2022/05/25 00:28:25;;;;;;;1.00;0.90;;;;;;;17.18;88.60;98368.88;5113477;28;20474;-60
2022/05/25 00:31:10;;;;;;;1.50;1.13;;;;;;;17.70;84.72;98370.59;5112577;28;20042;-61
2022/05/25 00:33:54;;;;;;;1.42;1.27;;;;;;;17.81;84.62;98368.59;5106185;28;20642;-59
2022/05/25 00:36:39;;;;;;;2.55;1.25;;;;;;;17.70;84.71;98375.88;5093760;28;20465;-60
2022/05/25 00:39:24;;;;;;;1.55;1.00;;;;;;;17.71;84.12;98363.44;5092741;28;20075;-60
2022/05/25 00:42:08;;;;;;;2.90;1.20;;;;;;;17.72;84.71;98359.81;5093294;28;20086;-60
2022/05/25 00:44:53;;;;;;;2.60;1.67;;;;;;;17.32;87.47;98360.34;5093565;28;20126;-60
2022/05/25 00:47:40;;;;;;;4.10;2.22;;;;;;;17.04;90.19;98355.22;5093287;28;20039;-60
2022/05/25 00:50:25;;;;;;;1.88;0.93;;;;;;;16.93;89.46;98366.06;5092220;28;20102;-59
2022/05/25 00:53:10;;;;;;;2.08;1.00;;;;;;;17.19;88.25;98376.66;5091905;28;20044;-60
2022/05/25 00:55:55;;;;;;;1.30;1.10;;;;;;;17.50;86.06;98370.00;5107789;28;20146;-61
2022/05/25 00:58:46;;;;;;;2.03;1.40;;;;;;;17.48;86.59;98378.13;5112568;28;20039;-60
2022/05/25 01:01:31;;;;;;;2.53;1.73;;;;;;;16.89;91.64;98370.84;5105627;28;21294;-61
2022/05/25 01:04:16;;;;;;;2.10;1.50;;;;;;;16.72;91.73;98368.09;5105537;28;20039;-59
2022/05/25 01:07:28;;;;;;;1.38;0.80;;;;;;;17.21;88.22;98365.91;5112731;28;20035;-61
2022/05/25 01:10:25;;;;;;;2.00;1.00;;;;;;;17.29;87.49;98373.91;5097994;28;20119;-60
2022/05/25 01:13:27;;;;;;;1.67;1.10;;;;;;;17.33;87.01;98371.78;5111622;28;20089;-61
2022/05/25 01:16:20;;;;;;;1.53;1.07;;;;;;;17.91;83.18;98368.47;5113246;28;20116;-62
2022/05/25 01:19:30;;;;;;;3.35;1.40;;;;;;;18.04;82.42;98371.47;5111794;28;20281;-61
2022/05/25 01:22:39;;;;;;;1.70;1.05;;;;;;;17.61;85.37;98361.78;5111720;28;20109;-61
2022/05/25 01:25:48;;;;;;;1.00;0.90;;;;;;;17.15;89.08;98363.91;5112663;28;20071;-60
2022/05/25 01:28:51;;;;;;;1.30;0.80;;;;;;;16.97;89.87;98362.94;5111515;28;20046;-58
2022/05/25 01:31:48;;;;;;;2.15;1.60;;;;;;;17.03;89.85;98356.22;5112354;28;20466;-61
2022/05/25 01:34:38;;;;;;;1.40;0.90;;;;;;;17.13;88.95;98356.13;5111176;28;20055;-60
2022/05/25 01:37:41;;;;;;;2.33;1.98;;;;;;;16.50;94.96;98354.38;5092104;28;20082;-60
2022/05/25 01:40:50;;;;;;;2.88;1.60;;;;;;;16.13;98.25;98347.47;5091878;28;20491;-61
2022/05/25 01:43:58;;;;;;;2.97;1.98;;;;;;;15.94;100.00;98351.91;5090791;28;20433;-61
2022/05/25 01:46:58;;;;;;;3.17;2.22;;;;;;;15.70;100.00;98348.00;5090788;28;20040;-60
2022/05/25 01:49:49;;;;;;;2.28;1.40;;;;;;;15.92;100.00;98348.56;5091452;28;20063;-61
2022/05/25 01:52:40;;;;;;;3.50;2.45;;;;;;;15.91;100.00;98346.09;5091438;28;20076;-61
2022/05/25 01:55:31;;;;;;;1.60;1.05;;;;;;;16.17;99.33;98343.56;5091090;28;20177;-61
2022/05/25 01:58:19;;;;;;;1.25;0.75;;;;;;;16.53;96.96;98341.84;5076528;28;20044;-61
2022/05/25 02:01:06;;;;;;;2.40;1.00;;;;;;;16.69;94.71;98341.13;5090926;28;20040;-60
2022/05/25 02:07:06;;;;;;;1.83;1.13;;;;;;;17.11;91.87;98358.94;5090687;28;20740;-60
2022/05/25 02:10:21;;;;;;;1.73;1.00;;;;;;;17.36;89.92;98363.50;5100028;28;20063;-61
2022/05/25 02:13:24;;;;;;;1.77;1.10;;;;;;;17.21;90.66;98355.34;5110860;28;20042;-60
2022/05/25 02:16:16;;;;;;;1.23;0.80;;;;;;;17.33;88.84;98346.13;5112185;28;20386;-61
2022/05/25 02:19:57;;;;;;;2.63;1.60;;;;;;;17.18;90.66;98353.84;5111950;28;20039;-59
2022/05/25 02:22:45;;;;;;;1.83;1.25;;;;;;;16.75;93.66;98349.28;5029545;28;20052;-59
2022/05/25 02:26:06;;;;;;;1.38;0.85;;;;;;;16.80;93.24;98355.91;5111419;28;20379;-61
2022/05/25 02:29:03;;;;;;;1.50;0.75;;;;;;;16.95;91.26;98353.50;5100808;28;20055;-61
2022/05/25 02:32:00;;;;;;;1.00;0.88;;;;;;;16.65;93.16;98350.38;5112139;28;20040;-59
2022/05/25 02:34:51;;;;;;;2.92;0.90;;;;;;;16.50;94.42;98353.53;5112246;28;20040;-60
2022/05/25 02:37:37;;;;;;;1.58;1.00;;;;;;;17.01;90.67;98352.06;5112130;28;20063;-59
2022/05/25 02:40:22;;;;;;;1.30;1.00;;;;;;;16.67;93.18;98358.94;5111184;28;20470;-59
2022/05/25 02:43:08;;;;;;;2.15;1.00;;;;;;;16.99;91.15;98360.97;5096790;28;20047;-60
2022/05/25 02:45:53;;;;;;;1.30;0.77;;;;;;;17.09;90.21;98365.34;5111961;28;20043;-60
2022/05/25 02:48:39;;;;;;;1.63;1.00;;;;;;;16.77;92.14;98362.34;5096992;28;20039;-60
2022/05/25 02:51:24;;;;;;;1.38;1.00;;;;;;;16.53;93.81;98357.72;5112031;28;20058;-65
2022/05/25 02:54:10;;;;;;;1.63;0.80;;;;;;;16.00;97.34;98364.53;5109936;28;20503;-60
2022/05/25 02:56:55;;;;;;;1.23;0.85;;;;;;;16.25;96.43;98353.38;5110061;28;20040;-59
2022/05/25 02:59:40;;;;;;;0.85;0.65;;;;;;;16.36;95.53;98360.22;5110463;28;20036;-61
2022/05/25 03:02:25;;;;;;;1.25;0.80;;;;;;;16.52;94.25;98367.44;5083864;28;20485;-60
2022/05/25 03:05:12;;;;;;;1.33;0.93;;;;;;;16.91;91.41;98363.56;5103808;28;20131;-59
2022/05/25 03:07:58;;;;;;;2.78;0.75;;;;;;;17.44;87.91;98365.34;5094954;28;20047;-61
2022/05/25 03:10:42;;;;;;;1.08;0.70;;;;;;;17.08;89.79;98353.09;5106121;28;20063;-60
2022/05/25 03:13:27;;;;;;;1.50;0.90;;;;;;;16.76;91.99;98355.41;5097394;28;20032;-61
2022/05/25 03:16:13;;;;;;;1.95;1.23;;;;;;;16.54;93.29;98349.63;5112205;28;20054;-60
2022/05/25 03:18:58;;;;;;;1.55;0.90;;;;;;;16.52;94.03;98356.06;5116311;28;20039;-61
2022/05/25 03:21:43;;;;;;;3.13;1.10;;;;;;;16.00;96.99;98355.78;5115449;28;20043;-60
2022/05/25 03:24:28;;;;;;;1.17;0.88;;;;;;;16.07;97.96;98363.94;5114801;28;20055;-60
2022/05/25 03:27:13;;;;;;;1.30;0.60;;;;;;;16.67;95.57;98370.38;5115430;28;20039;-61
2022/05/25 03:29:58;;;;;;;1.05;0.77;;;;;;;17.37;90.65;98367.81;5116598;28;20382;-60
2022/05/25 03:32:43;;;;;;;1.40;0.80;;;;;;;17.24;89.50;98369.09;5117037;28;20032;-61
2022/05/25 03:35:28;;;;;;;1.00;0.75;;;;;;;16.80;91.79;98369.97;5122155;28;20036;-60
2022/05/25 03:38:13;;;;;;;3.95;0.80;;;;;;;16.60;93.17;98372.78;5115464;28;20411;-61
2022/05/25 03:41:00;;;;;;;1.17;0.63;;;;;;;16.36;95.30;98366.34;5100825;28;20082;-61
2022/05/25 03:43:45;;;;;;;1.00;0.70;;;;;;;16.43;94.55;98371.00;5116297;28;20453;-60
2022/05/25 03:46:32;;;;;;;1.08;0.55;;;;;;;16.41;95.03;98381.75;5116136;28;20035;-60
2022/05/25 03:49:17;;;;;;;0.98;0.68;;;;;;;16.60;94.07;98371.97;5115692;28;20050;-61
2022/05/25 03:52:04;;;;;;;1.45;0.70;;;;;;;16.35;94.88;98379.72;5115224;28;20032;-60
2022/05/25 03:54:49;;;;;;;1.08;0.80;;;;;;;16.43;94.77;98384.22;5114796;28;20312;-60
2022/05/25 03:57:34;;;;;;;2.25;0.60;;;;;;;16.69;93.95;98388.72;5113358;28;20438;-60
2022/05/25 04:00:19;;;;;;;1.27;0.55;;;;;;;16.91;92.13;98394.50;5099517;28;20075;-60
2022/05/25 04:03:04;;;;;;;1.02;0.60;;;;;;;17.50;89.30;98404.44;5113603;28;20044;-61
2022/05/25 04:05:50;;;;;;;1.35;0.77;;;;;;;17.29;89.76;98405.66;5113346;28;20039;-61
2022/05/25 04:08:34;;;;;;;0.82;0.70;;;;;;;16.88;91.42;98414.16;5094333;28;20047;-60
2022/05/25 04:11:19;;;;;;;1.45;0.70;;;;;;;17.42;88.61;98421.13;5113797;28;20040;-60
2022/05/25 04:14:04;;;;;;;1.63;0.57;;;;;;;17.31;88.59;98429.31;5095453;28;20047;-59
2022/05/25 04:16:49;;;;;;;0.80;0.50;;;;;;;17.95;85.32;98417.50;5113745;28;20059;-60
2022/05/25 04:19:38;;;;;;;1.05;0.60;;;;;;;17.71;85.65;98413.78;5113865;28;20046;-60
2022/05/25 04:22:24;;;;;;;1.08;0.40;;;;;;;17.78;85.84;98406.84;5113599;28;20469;-59
2022/05/25 04:25:13;;;;;;;1.02;0.57;;;;;;;18.29;83.29;98413.97;5107978;28;20044;-62
2022/05/25 04:27:58;;;;;;;0.68;0.38;;;;;;;18.27;83.17;98410.63;5106262;28;20075;-60
2022/05/25 04:30:43;;;;;;;3.65;0.50;;;;;;;18.21;84.19;98408.66;5107200;28;20039;-59
2022/05/25 04:33:29;;;;;;;1.42;0.30;;;;;;;18.84;81.26;98406.34;5121013;27;20502;-62
2022/05/25 04:36:14;;;;;;;2.08;0.70;;;;;;;18.18;83.26;98415.09;5112584;28;20047;-60
2022/05/25 04:38:59;;;;;;;1.73;0.70;;;;;;;16.53;92.73;98414.06;5108681;28;20071;-60
2022/05/25 04:41:44;;;;;;;2.22;0.60;;;;;;;17.15;90.73;98408.91;5113913;28;20043;-59
2022/05/25 04:44:28;;;;;;;3.95;0.70;;;;;;;17.95;86.79;98414.84;5113066;28;20058;-59
2022/05/25 04:47:13;;;;;;;1.70;0.40;;;;;;;17.88;86.87;98398.78;5113862;28;20043;-61
2022/05/25 04:49:58;;;;;;;6.63;0.73;;;;;;;18.44;83.11;98387.59;5113736;28;20058;-59
2022/05/25 04:52:43;;;;;;;2.05;0.63;;;;;;;17.70;85.28;98375.03;5113685;28;20039;-60
2022/05/25 04:58:34;;;;;;;1.80;0.80;;;;;;;17.01;91.00;98373.25;5112444;28;20035;-59
2022/05/25 05:01:19;;;;;;;4.55;0.60;;;;;;;17.81;87.40;98379.19;5113583;28;20046;-61
2022/05/25 05:04:05;;;;;;;1.42;0.60;;;;;;;17.15;89.75;98393.00;5112571;28;20327;-62
2022/05/25 05:06:50;;;;;;;0.60;0.40;;;;;;;17.64;87.78;98392.41;5112136;28;20046;-59
2022/05/25 05:09:36;;;;;;;4.30;0.80;;;;;;;17.42;88.53;98391.16;5113327;28;20035;-60
2022/05/25 05:12:21;;;;;;;3.50;0.50;;;;;;;18.19;86.25;98402.66;5112236;28;20062;-60
2022/05/25 05:15:07;;;;;;;2.15;0.55;;;;;;;18.61;83.65;98392.91;5107637;28;20043;-60
2022/05/25 05:17:52;;;;;;;0.80;0.65;;;;;;;18.27;83.18;98399.19;5079753;28;20048;-62
2022/05/25 05:21:04;;;;;;;2.70;0.60;;;;;;;17.70;87.60;98414.78;5093821;28;20063;-59
2022/05/25 05:23:49;;;;;;;3.30;0.43;;;;;;;17.47;90.03;98413.53;5076972;28;20040;-60
2022/05/25 05:26:36;;;;;;;1.42;0.30;;;;;;;18.73;83.12;98417.28;5092130;28;20467;-60
2022/05/25 05:29:22;;;;;;;1.00;0.77;;;;;;;18.45;82.59;98402.53;5093838;28;20040;-59
2022/05/25 05:32:10;;;;;;;2.42;0.80;;;;;;;17.53;86.94;98396.16;5094125;28;20024;-59
2022/05/25 05:34:55;;;;;;;1.40;0.68;;;;;;;17.26;89.09;98403.34;5094164;28;20036;-59
2022/05/25 05:37:46;;;;;;;1.25;0.70;;;;;;;17.25;89.96;98406.94;5090760;28;20043;-59
2022/05/25 05:40:31;;;;;;;0.80;0.70;;;;;;;17.41;89.02;98411.53;5097899;28;20467;-59
2022/05/25 05:43:17;;;;;;;2.08;0.50;;;;;;;17.20;91.22;98420.66;5092101;28;20040;-61
2022/05/25 05:46:06;;;;;;;2.30;0.50;;;;;;;16.73;92.83;98425.28;5077539;28;20054;-62
2022/05/25 05:48:54;;;;;;;1.38;0.30;;;;;;;16.49;95.07;98439.97;5093629;28;20062;-61
2022/05/25 05:51:46;;;;;;;0.52;0.50;;;;;;;16.42;95.39;98420.41;5075916;28;20075;-59
2022/05/25 05:54:40;;;;;;;2.85;0.60;;;;;;;16.95;92.63;98398.50;5088102;28;20490;-59
2022/05/25 05:57:25;;;;;;;0.60;0.55;;;;;;;16.60;94.08;98398.41;5092309;28;20036;-59
2022/05/25 06:00:15;;;;;;;1.67;0.40;;;;;;;17.42;91.47;98402.59;5093850;28;20121;-61
2022/05/25 06:03:01;;;;;;;1.23;0.80;;;;;;;16.84;92.09;98408.31;5111154;28;20116;-59
2022/05/25 06:05:47;;;;;;;1.10;0.88;;;;;;;16.37;95.60;98435.88;5111189;28;20041;-61
2022/05/25 06:08:31;;;;;;;2.83;0.60;;;;;;;16.30;96.48;98456.81;5107839;28;20042;-61
2022/05/25 06:11:18;;;;;;;1.13;0.50;;;;;;;16.29;96.63;98468.34;5072252;28;20427;-59
2022/05/25 06:14:03;;;;;;;0.80;0.60;;;;;;;16.25;95.65;98474.94;5100015;28;20093;-63
2022/05/25 06:19:53;;;;;;;1.13;0.70;;;;;;;15.90;96.07;98485.22;5098392;28;20110;-61
2022/05/25 06:22:38;;;;;;;0.73;0.40;;;;;;;15.31;100.00;98486.28;5104315;28;20039;-60
2022/05/25 06:25:23;;;;;;;1.45;0.57;;;;;;;15.29;100.00;98490.88;5094348;28;20040;-60
2022/05/25 06:28:10;;;;;;;1.95;0.60;;;;;;;15.53;100.00;98502.75;5090569;28;20395;-60
2022/05/25 06:30:55;;;;;;;1.40;0.40;;;;;;;16.30;97.30;98504.38;5090472;28;20064;-62
2022/05/25 06:33:41;;;;;;;1.52;0.40;;;;;;;16.57;94.79;98499.19;5090917;28;20047;-62
2022/05/25 06:36:49;;;;;;;2.42;0.60;;;;;;;16.16;95.38;98503.06;5091110;28;20036;-63
2022/05/25 06:39:36;;;;;;;2.05;0.30;;;;;;;16.19;94.50;98499.31;5092070;28;20093;-61
2022/05/25 06:42:20;;;;;;;0.85;0.50;;;;;;;15.47;98.39;98511.25;5092264;28;20479;-60
2022/05/25 06:45:12;;;;;;;0.75;0.60;;;;;;;15.36;100.00;98514.88;5090966;28;20538;-60
2022/05/25 06:47:57;;;;;;;1.88;0.40;;;;;;;15.74;99.46;98522.81;5090964;28;20073;-61
2022/05/25 06:50:42;;;;;;;1.02;0.43;;;;;;;16.48;94.78;98522.06;5094586;28;20051;-62
2022/05/25 06:53:27;;;;;;;2.00;0.52;;;;;;;16.67;91.68;98517.63;5094796;28;20043;-62
2022/05/25 06:56:12;;;;;;;1.75;0.20;;;;;;;17.08;91.91;98504.78;5095538;28;20482;-61
2022/05/25 06:58:57;;;;;;;3.75;0.50;;;;;;;17.64;85.27;98502.81;5095381;28;20040;-59
2022/05/25 07:01:43;;;;;;;2.00;0.30;;;;;;;16.96;88.97;98506.81;5095411;28;20097;-62
2022/05/25 07:04:27;;;;;;;1.58;0.30;;;;;;;17.48;87.08;98507.84;5095319;28;20386;-60
2022/05/25 07:07:12;;;;;;;1.73;0.70;;;;;;;17.61;85.91;98510.06;5108352;28;20032;-60
2022/05/25 07:09:57;;;;;;;0.32;0.30;;;;;;;17.30;85.73;98513.19;5104043;28;20119;-61
2022/05/25 07:12:42;;;;;;;0.40;0.40;;;;;;;16.24;90.50;98519.00;5100329;28;20039;-60
2022/05/25 07:15:26;;;;;;;1.33;0.30;;;;;;;16.91;89.76;98518.84;5106025;28;20085;-60
2022/05/25 07:18:11;;;;;;;0.65;0.40;;;;;;;18.07;83.74;98508.97;5095154;28;20039;-61
2022/05/25 07:21:11;;;;;;;0.52;0.30;;;;;;;18.53;80.70;98504.28;5100519;28;20046;-61
2022/05/25 07:24:03;;;;;;;0.50;0.38;;;;;;;19.22;77.88;98511.16;5114620;28;20043;-66
2022/05/25 07:26:47;;;;;;;0.30;0.30;;;;;;;19.89;74.80;98508.34;5111407;27;20428;-66
2022/05/25 07:29:32;;;;;;;2.67;0.57;;;;;;;18.68;78.85;98507.16;5095105;27;20081;-66
2022/05/25 07:32:20;;;;;;;0.57;0.28;;;;;;;19.14;77.69;98501.38;5114962;28;20039;-65
2022/05/25 07:35:05;;;;;;;0.63;0.32;;;;;;;18.68;77.99;98499.19;5110681;27;20032;-66
2022/05/25 07:37:52;;;;;;;0.75;0.43;;;;;;;18.76;80.16;98509.81;5118536;28;20130;-67
2022/05/25 07:40:41;;;;;;;1.42;0.40;;;;;;;18.79;79.17;98498.88;5106668;27;20063;-65
2022/05/25 07:43:29;;;;;;;0.70;0.40;;;;;;;19.79;76.21;98504.06;5113906;28;20059;-64
2022/05/25 07:46:14;;;;;;;0.65;0.32;;;;;;;19.20;78.32;98499.88;5115008;28;20078;-65
2022/05/25 07:48:59;;;;;;;2.47;0.70;;;;;;;19.73;74.01;98501.25;5090070;28;20141;-65
2022/05/25 07:51:45;;;;;;;1.10;0.50;;;;;;;20.65;72.67;98512.28;5117436;27;20085;-65
2022/05/25 07:54:30;;;;;;;1.40;0.68;;;;;;;19.76;76.21;98516.84;5103393;28;20135;-66
2022/05/25 07:57:15;;;;;;;1.55;0.73;;;;;;;19.74;75.68;98510.88;5101887;28;20081;-65
2022/05/25 08:00:00;;;;;;;1.23;0.63;;;;;;;19.71;73.55;98512.06;5100540;28;20110;-66
2022/05/25 08:05:56;;;;;;;1.27;0.55;;;;;;;20.19;74.66;98522.69;5106446;28;20044;-66
2022/05/25 08:08:46;;;;;;;0.80;0.70;;;;;;;20.18;72.18;98528.19;5104734;27;20040;-65
2022/05/25 08:11:34;;;;;;;2.33;0.75;;;;;;;19.42;75.80;98530.19;5111495;28;20520;-65
2022/05/25 08:14:24;;;;;;;0.80;0.60;;;;;;;21.37;68.23;98526.19;5091544;28;20040;-65
2022/05/25 08:17:11;;;;;;;0.93;0.80;;;;;;;19.79;73.74;98538.59;5102586;28;20035;-67
2022/05/25 08:19:56;;;;;;;1.10;0.70;;;;;;;19.31;76.37;98539.34;5103856;27;20035;-64
2022/05/25 08:22:41;;;;;;;0.90;0.80;;;;;;;21.19;76.79;98531.84;5085355;28;20047;-65
2022/05/25 08:25:26;;;;;;;1.13;0.60;;;;;;;22.33;63.84;98528.28;5091324;28;20097;-65
2022/05/25 08:28:11;;;;;;;1.60;1.17;;;;;;;21.75;70.43;98529.81;5097621;28;20035;-66
2022/05/25 08:30:56;;;;;;;2.67;0.90;;;;;;;21.19;68.94;98534.50;5094532;27;20581;-66
2022/05/25 08:33:43;;;;;;;2.05;0.90;;;;;;;20.66;68.66;98536.03;5097348;28;20051;-65
2022/05/25 08:36:28;;;;;;;0.93;0.65;;;;;;;20.04;71.17;98530.56;5097036;28;20039;-65
2022/05/25 08:39:12;;;;;;;1.05;0.80;;;;;;;19.87;74.92;98539.56;5093623;27;20463;-66
2022/05/25 08:42:02;;;;;;;0.93;0.75;;;;;;;21.53;68.70;98541.19;5068481;28;20043;-65
2022/05/25 08:44:50;;;;;;;0.80;0.80;;;;;;;19.97;72.45;98534.06;5098100;27;20150;-66
2022/05/25 08:47:37;;;;;;;1.35;0.80;;;;;;;20.13;74.19;98543.81;5098667;28;20043;-65
2022/05/25 08:50:22;;;;;;;8.93;1.05;;;;;;;19.86;76.72;98543.22;5084275;28;20382;-66
2022/05/25 08:53:12;;;;;;;1.05;0.90;;;;;;;20.01;73.09;98543.34;5096351;27;20031;-67
2022/05/25 08:56:17;;;;;;;5.50;1.23;;;;;;;19.38;74.69;98552.78;5124947;27;20470;-67
2022/05/25 08:59:25;;;;;;;3.63;0.90;;;;;;;20.56;73.41;98564.72;5098701;28;20040;-67
2022/05/25 09:02:45;;;;;;;1.80;0.77;;;;;;;20.21;72.73;98562.41;5067478;28;20509;-66
2022/05/25 09:05:40;;;;;;;1.38;1.00;;;;;;;20.14;71.79;98567.56;5099688;28;20105;-68
2022/05/25 09:08:52;;;;;;;1.50;1.00;;;;;;;19.43;74.71;98569.06;5096772;28;20055;-69
2022/05/25 09:11:38;;;;;;;1.75;1.23;;;;;;;18.15;80.41;98571.78;5106643;28;20032;-67
2022/05/25 09:14:30;;;;;;;2.35;1.10;;;;;;;18.44;81.11;98577.72;5101557;28;20495;-66
2022/05/25 09:17:51;;;;;;;3.47;1.00;;;;;;;20.19;74.39;98577.69;5093994;27;20067;-67
2022/05/25 09:20:42;;;;;;;1.00;0.90;;;;;;;20.40;71.97;98579.75;5071829;27;20073;-68
2022/05/25 09:23:28;;;;;;;1.30;0.50;;;;;;;21.08;69.37;98583.72;5098091;28;20447;-68
2022/05/25 09:26:13;;;;;;;1.95;0.82;;;;;;;21.42;66.14;98587.75;5109117;28;21434;-68
2022/05/25 09:29:04;;;;;;;1.98;1.20;;;;;;;20.54;70.61;98580.88;5090173;28;20496;-68
2022/05/25 09:32:07;;;;;;;2.22;1.15;;;;;;;20.15;71.99;98585.19;5101064;28;20039;-68
2022/05/25 09:35:08;;;;;;;2.53;1.20;;;;;;;19.01;77.75;98594.75;5107679;28;20039;-67
2022/05/25 09:37:58;;;;;;;2.22;0.98;;;;;;;19.52;75.95;98585.81;5104787;28;20379;-67
2022/05/25 09:40:51;;;;;;;1.92;0.88;;;;;;;19.51;74.90;98589.47;5093723;28;20048;-67
2022/05/25 09:43:38;;;;;;;1.80;0.95;;;;;;;19.51;76.38;98592.13;5115856;27;20031;-66
2022/05/25 09:46:26;;;;;;;1.20;0.85;;;;;;;20.67;71.37;98598.91;5095769;28;20063;-67
2022/05/25 09:49:25;;;;;;;2.10;1.20;;;;;;;19.72;73.97;98597.88;5105723;27;20048;-67
2022/05/25 09:52:35;;;;;;;1.30;0.80;;;;;;;21.03;72.21;98597.56;5138962;27;20036;-66
2022/05/25 09:55:25;;;;;;;1.30;0.85;;;;;;;20.26;70.92;98588.47;5103192;28;20035;-68
2022/05/25 09:58:33;;;;;;;1.50;0.80;;;;;;;20.23;73.96;98583.50;5111627;28;20036;-67
2022/05/25 10:01:40;;;;;;;1.40;0.77;;;;;;;22.22;66.72;98577.59;5095873;28;20047;-69
2022/05/25 10:04:55;;;;;;;1.40;0.80;;;;;;;22.38;62.34;98580.06;5080140;28;20036;-68
2022/05/25 10:07:53;;;;;;;0.73;0.60;;;;;;;20.84;68.56;98588.16;5104331;28;20050;-67
2022/05/25 10:11:00;;;;;;;3.40;0.73;;;;;;;21.67;67.52;98582.19;5110205;28;20035;-67
2022/05/25 10:13:44;;;;;;;0.93;0.65;;;;;;;22.32;64.23;98596.84;5111434;28;20047;-67
2022/05/25 10:16:30;;;;;;;0.70;0.70;;;;;;;21.76;65.19;98596.25;5105832;28;20036;-66
2022/05/25 10:19:19;;;;;;;0.60;0.60;;;;;;;23.16;60.23;98606.38;5101419;28;20471;-66
2022/05/25 10:22:37;;;;;;;1.98;0.82;;;;;;;22.21;64.15;98597.31;5099134;28;20370;-66
2022/05/25 10:25:34;;;;;;;0.77;0.60;;;;;;;21.86;65.35;98606.69;5104982;28;20046;-66
2022/05/25 10:28:28;;;;;;;1.23;0.70;;;;;;;22.00;63.97;98597.03;5104177;28;20127;-67
2022/05/25 10:37:54;;;;;;;2.40;0.52;;;;;;;23.03;60.49;98591.06;5105531;28;20036;-70
2022/05/25 10:40:44;;;;;;;0.70;0.40;;;;;;;22.83;61.49;98600.50;5107914;27;20071;-68
2022/05/25 10:43:30;;;;;;;1.38;0.63;;;;;;;23.63;58.83;98604.13;5100387;28;20217;-68
2022/05/25 10:46:17;;;;;;;1.77;0.40;;;;;;;23.87;57.24;98615.38;5104656;28;20467;-68
2022/05/25 10:49:38;;;;;;;0.57;0.45;;;;;;;22.66;60.21;98607.09;5106892;28;20036;-68
2022/05/25 10:52:33;;;;;;;0.35;0.25;;;;;;;23.01;60.22;98602.75;5103730;27;20085;-66
2022/05/25 10:55:18;;;;;;;2.40;0.52;;;;;;;23.26;58.80;98594.34;5096665;28;20032;-67
2022/05/25 10:58:37;;;;;;;0.57;0.40;;;;;;;22.71;60.05;98602.03;5100795;28;20032;-68
2022/05/25 11:01:37;;;;;;;1.52;0.40;;;;;;;22.52;60.45;98605.06;5100764;28;20046;-68
2022/05/25 11:04:41;;;;;;;0.70;0.52;;;;;;;23.15;57.93;98597.53;5092389;28;20313;-66
2022/05/25 11:07:35;;;;;;;0.50;0.40;;;;;;;22.83;59.57;98594.34;5101125;28;20113;-67
2022/05/25 11:10:39;;;;;;;0.30;0.20;;;;;;;23.20;58.51;98586.25;5101494;28;20044;-68
2022/05/25 11:14:02;;;;;;;1.88;0.30;;;;;;;23.98;55.12;98576.56;5104441;28;20810;-67
2022/05/25 11:17:07;;;;;;;0.32;0.20;;;;;;;24.38;53.48;98570.59;5105708;28;20040;-67
2022/05/25 11:20:13;;;;;;;0.85;0.30;;;;;;;23.39;56.90;98579.47;5100545;28;20039;-68
2022/05/25 11:23:36;;;;;;;0.57;0.30;;;;;;;24.41;54.36;98580.06;5100681;28;20048;-68
2022/05/25 11:26:39;;;;;;;3.75;0.60;;;;;;;22.64;59.21;98581.44;5106179;28;20111;-67
2022/05/25 11:29:32;;;;;;;0.38;0.30;;;;;;;22.62;60.59;98583.44;5107016;27;20036;-66
2022/05/25 11:32:35;;;;;;;0.50;0.40;;;;;;;24.39;55.03;98579.44;5095149;27;20577;-66
2022/05/25 11:36:05;;;;;;;0.40;0.22;;;;;;;23.70;55.96;98572.06;5094394;28;20403;-67
2022/05/25 11:39:08;;;;;;;1.10;0.20;;;;;;;24.45;54.48;98563.41;5087916;28;20093;-68
2022/05/25 11:42:24;;;;;;;0.38;0.30;;;;;;;23.62;55.82;98583.75;5093942;28;20066;-57
2022/05/25 11:45:37;;;;;;;0.47;0.30;;;;;;;22.33;59.95;98585.13;5093644;28;20039;-68
2022/05/25 11:48:38;;;;;;;0.50;0.30;;;;;;;23.96;56.86;98573.28;5092807;28;20475;-66
2022/05/25 11:51:35;;;;;;;0.95;0.30;;;;;;;23.09;58.23;98579.59;5093418;28;20471;-66
2022/05/25 11:54:32;;;;;;;1.13;0.20;;;;;;;22.96;57.83;98574.97;5098034;28;20422;-65
2022/05/25 11:57:33;;;;;;;0.45;0.20;;;;;;;23.10;57.68;98576.75;5106927;27;20099;-66
2022/05/25 12:00:44;;;;;;;0.50;0.40;;;;;;;22.71;59.19;98591.34;5106139;27;20100;-68
2022/05/25 12:03:53;;;;;;;2.00;0.52;;;;;;;22.41;60.89;98589.53;5093058;28;20063;-69
2022/05/25 12:06:52;;;;;;;0.55;0.32;;;;;;;22.32;61.49;98590.66;5094675;28;20040;-70
2022/05/25 12:09:54;;;;;;;0.70;0.52;;;;;;;21.69;63.18;98591.84;5099814;28;20483;-69
2022/05/25 12:12:47;;;;;;;1.02;0.32;;;;;;;22.06;62.87;98589.31;5111259;28;20032;-69
2022/05/25 12:15:41;;;;;;;0.50;0.20;;;;;;;22.03;61.98;98586.00;5113500;28;20044;-70
2022/05/25 12:18:43;;;;;;;0.50;0.30;;;;;;;22.43;61.31;98581.34;5094126;28;20728;-70
2022/05/25 12:21:38;;;;;;;0.73;0.30;;;;;;;22.15;61.98;98585.53;5092517;28;20048;-71
2022/05/25 12:24:29;;;;;;;0.63;0.30;;;;;;;22.38;61.03;98590.75;5092464;28;20039;-71
2022/05/25 12:27:20;;;;;;;0.68;0.30;;;;;;;22.03;61.20;98580.66;5092720;28;20148;-67
2022/05/25 12:30:14;;;;;;;0.30;0.20;;;;;;;21.58;62.63;98579.78;5092596;28;20063;-65
2022/05/25 12:33:02;;;;;;;0.98;0.30;;;;;;;21.37;63.88;98587.47;5093336;28;20139;-68
2022/05/25 12:35:50;;;;;;;0.70;0.28;;;;;;;21.30;64.05;98583.84;5091242;28;20764;-67
2022/05/25 12:38:36;;;;;;;0.40;0.20;;;;;;;21.11;64.73;98596.66;5096917;28;20110;-68
2022/05/25 12:41:32;;;;;;;0.68;0.40;;;;;;;21.16;64.76;98590.78;5102185;28;20494;-67
2022/05/25 12:51:10;;;;;;;0.70;0.30;;;;;;;21.82;62.03;98580.59;5096053;28;20494;-64
2022/05/25 12:53:54;;;;;;;0.88;0.50;;;;;;;21.36;64.35;98599.13;5103552;28;20059;-64
2022/05/25 12:56:39;;;;;;;0.40;0.20;;;;;;;20.30;67.07;98611.06;5097534;28;20043;-64
2022/05/25 12:59:31;;;;;;;1.38;0.55;;;;;;;20.45;66.54;98610.34;5091886;28;20055;-63
2022/05/25 13:02:19;;;;;;;0.80;0.40;;;;;;;20.60;65.47;98629.88;5091811;28;20063;-64
2022/05/25 13:05:06;;;;;;;0.40;0.30;;;;;;;20.86;64.15;98638.56;5092751;28;20394;-64
2022/05/25 13:07:51;;;;;;;0.50;0.30;;;;;;;20.26;66.59;98634.50;5092447;27;20453;-64
2022/05/25 13:10:56;;;;;;;0.40;0.30;;;;;;;20.42;66.35;98651.41;5104077;28;20041;-64
2022/05/25 13:13:41;;;;;;;0.80;0.40;;;;;;;20.13;67.98;98661.63;5111174;28;20062;-64
2022/05/25 13:16:41;;;;;;;4.78;1.38;;;;;;;19.95;68.40;98677.75;5095629;28;20046;-62
2022/05/25 13:19:29;;;;;;;1.30;0.40;;;;;;;19.70;70.33;98673.28;5110166;28;20071;-64
2022/05/25 13:22:16;;;;;;;1.08;0.40;;;;;;;19.81;70.37;98679.28;5111079;28;20039;-62
2022/05/25 13:25:26;;;;;;;1.70;0.38;;;;;;;19.44;72.62;98679.59;5110549;28;20049;-62
2022/05/25 13:28:40;;;;;;;0.60;0.40;;;;;;;18.94;76.00;98692.78;5113244;28;20459;-62
2022/05/25 13:31:50;;;;;;;0.80;0.50;;;;;;;18.55;78.50;98706.53;5111927;28;20498;-64
2022/05/25 13:34:36;;;;;;;0.50;0.47;;;;;;;18.89;77.54;98710.16;5115651;28;20568;-64
2022/05/25 13:37:21;;;;;;;0.80;0.50;;;;;;;18.68;79.00;98724.66;5104172;28;20036;-63
2022/05/25 13:40:11;;;;;;;2.22;0.60;;;;;;;18.61;79.93;98734.25;5113370;28;20043;-63
2022/05/25 13:42:55;;;;;;;0.38;0.30;;;;;;;18.57;79.16;98747.81;5112910;28;20043;-63
2022/05/25 13:45:43;;;;;;;0.85;0.35;;;;;;;18.75;78.38;98752.25;5112092;28;20035;-64
2022/05/25 13:48:28;;;;;;;0.88;0.45;;;;;;;17.43;85.13;98759.00;5112791;28;20055;-64
2022/05/25 13:51:19;;;;;;;0.77;0.50;;;;;;;17.83;84.35;98764.88;5111564;28;20047;-63
2022/05/25 13:54:19;;;;;;;1.52;0.70;;;;;;;17.42;87.79;98769.75;5111692;28;20047;-64
2022/05/25 13:57:05;;;;;;;4.07;1.00;;;;;;;17.31;89.61;98782.25;5112205;28;20112;-65